Time;durP1;ratioP1;P1;durP2;ratioP2;P2;SDS_P1;SDS_P2;PMS_P1;PMS_P2;Temp;Humidity;BMP_temperature;BMP_pressure;BME280_temperature;BME280_humidity;BME280_pressure;Samples;Min_cycle;Max_cycle;Signal;HPM_P1;HPM_P2
2022/12/27 00:01:34;;;;;;;253.40;147.75;;;6.20;99.90;;;;;;5052821;28;20053;-77
2022/12/27 00:04:01;;;;;;;190.48;118.28;;;6.20;99.90;;;;;;5053530;28;20382;-78
2022/12/27 00:06:31;;;;;;;218.50;131.10;;;6.20;99.90;;;;;;5053759;28;20045;-77
2022/12/27 00:08:58;;;;;;;201.43;123.35;;;6.20;99.90;;;;;;5053232;28;20040;-77
2022/12/27 00:11:28;;;;;;;271.17;162.80;;;6.30;99.90;;;;;;5051966;28;20132;-76
2022/12/27 00:13:56;;;;;;;269.30;163.48;;;6.30;99.90;;;;;;5051402;28;20044;-77
2022/12/27 00:16:23;;;;;;;249.27;149.98;;;6.20;99.90;;;;;;5052299;28;20087;-76
2022/12/27 00:18:51;;;;;;;259.17;151.10;;;6.20;99.90;;;;;;5053659;28;20037;-75
2022/12/27 00:21:20;;;;;;;307.08;190.98;;;6.30;99.90;;;;;;5054409;28;20068;-77
2022/12/27 00:23:51;;;;;;;254.85;152.30;;;6.30;99.90;;;;;;5062070;28;20060;-77
2022/12/27 00:26:20;;;;;;;253.80;148.27;;;6.30;99.90;;;;;;5064743;28;20041;-75
2022/12/27 00:28:48;;;;;;;255.10;150.15;;;6.30;99.90;;;;;;5058253;28;20056;-80
2022/12/27 00:31:16;;;;;;;254.90;151.02;;;6.30;99.90;;;;;;5051660;28;20040;-76
2022/12/27 00:33:45;;;;;;;230.68;136.43;;;6.30;99.90;;;;;;5052091;28;20049;-76
2022/12/27 00:36:15;;;;;;;274.35;164.52;;;6.30;99.90;;;;;;5052085;28;20045;-78
2022/12/27 00:38:42;;;;;;;247.35;148.75;;;6.30;99.90;;;;;;5053025;28;20033;-78
2022/12/27 00:41:12;;;;;;;231.27;140.05;;;6.40;99.90;;;;;;5069555;28;20199;-78
2022/12/27 00:43:40;;;;;;;225.45;134.68;;;6.30;99.90;;;;;;5051918;28;20037;-76
2022/12/27 00:46:08;;;;;;;235.68;139.95;;;6.40;99.90;;;;;;5051596;28;20381;-77
2022/12/27 00:48:36;;;;;;;239.93;141.75;;;6.40;99.90;;;;;;5051931;28;20041;-78
2022/12/27 00:51:07;;;;;;;211.13;126.90;;;6.40;99.90;;;;;;5051933;28;21108;-78
2022/12/27 00:53:35;;;;;;;193.98;120.15;;;6.40;99.90;;;;;;5051963;28;20084;-77
2022/12/27 00:56:07;;;;;;;215.57;130.15;;;6.50;99.90;;;;;;5052044;28;20041;-78
2022/12/27 00:58:36;;;;;;;212.30;127.47;;;6.60;99.90;;;;;;5056723;28;20044;-76
2022/12/27 01:01:08;;;;;;;211.20;127.70;;;6.60;99.90;;;;;;5057691;28;20053;-76
2022/12/27 01:03:36;;;;;;;233.13;136.93;;;6.60;99.90;;;;;;5052731;28;20044;-76
2022/12/27 01:06:08;;;;;;;228.75;135.27;;;6.60;99.90;;;;;;5049499;28;20051;-77
2022/12/27 01:08:36;;;;;;;232.77;139.20;;;6.70;99.90;;;;;;5051408;28;20056;-77
2022/12/27 01:11:04;;;;;;;187.98;115.65;;;6.70;99.90;;;;;;5050880;28;20498;-78
2022/12/27 01:13:32;;;;;;;212.02;133.18;;;6.70;99.90;;;;;;5051289;28;20420;-77
2022/12/27 01:16:01;;;;;;;211.88;131.18;;;6.80;99.90;;;;;;5050277;28;20040;-76
2022/12/27 01:18:28;;;;;;;215.27;130.43;;;6.80;99.90;;;;;;5050931;28;20045;-78
2022/12/27 01:20:56;;;;;;;231.43;144.07;;;6.80;99.90;;;;;;5050519;28;20048;-78
2022/12/27 01:23:24;;;;;;;207.82;128.52;;;6.80;99.90;;;;;;5051052;28;20048;-78
2022/12/27 01:26:00;;;;;;;212.07;129.65;;;6.80;99.90;;;;;;5050810;28;20044;-78
2022/12/27 01:28:28;;;;;;;204.50;123.03;;;6.80;99.90;;;;;;5050357;28;20049;-76
2022/12/27 01:30:55;;;;;;;204.75;121.22;;;6.80;99.90;;;;;;5049021;28;20115;-78
2022/12/27 01:33:24;;;;;;;213.18;134.10;;;6.90;99.90;;;;;;5049964;28;20037;-75
2022/12/27 01:35:52;;;;;;;218.80;129.90;;;6.90;99.90;;;;;;5050639;28;20045;-79
2022/12/27 01:38:19;;;;;;;222.07;134.85;;;6.90;99.90;;;;;;5050413;28;20489;-77
2022/12/27 01:40:46;;;;;;;201.45;123.93;;;6.90;99.90;;;;;;5049191;28;20508;-77
2022/12/27 01:43:16;;;;;;;232.40;134.75;;;6.90;99.90;;;;;;5049848;28;20124;-76
2022/12/27 01:45:45;;;;;;;204.57;121.18;;;6.90;99.90;;;;;;5050477;28;20049;-76
2022/12/27 01:48:17;;;;;;;205.07;122.75;;;6.90;99.90;;;;;;5050379;28;20029;-75
2022/12/27 01:50:51;;;;;;;172.40;106.10;;;7.00;99.90;;;;;;5049799;28;20048;-78
2022/12/27 01:53:21;;;;;;;179.00;109.03;;;7.00;99.90;;;;;;5051232;28;20037;-77
2022/12/27 01:55:52;;;;;;;220.93;130.57;;;7.10;99.90;;;;;;5051725;28;20049;-76
2022/12/27 01:58:26;;;;;;;219.32;129.75;;;7.00;99.90;;;;;;5051370;28;20347;-76
2022/12/27 02:00:54;;;;;;;216.82;129.32;;;7.00;99.90;;;;;;5052755;28;20044;-74
2022/12/27 02:03:27;;;;;;;202.00;120.97;;;7.00;99.90;;;;;;5050496;28;20044;-77
2022/12/27 02:05:56;;;;;;;198.15;117.60;;;7.00;99.90;;;;;;5049099;28;20041;-76
2022/12/27 02:08:37;;;;;;;196.10;116.28;;;7.10;99.90;;;;;;5049298;28;20531;-77
2022/12/27 02:11:05;;;;;;;174.15;105.63;;;7.10;99.90;;;;;;5048650;28;20044;-78
2022/12/27 02:13:36;;;;;;;185.43;114.47;;;7.20;99.90;;;;;;5049833;28;20045;-78
2022/12/27 02:16:11;;;;;;;203.80;118.80;;;7.10;99.90;;;;;;5048563;28;20473;-78
2022/12/27 02:18:38;;;;;;;196.93;117.43;;;7.20;99.90;;;;;;5049954;28;20041;-77
2022/12/27 02:21:47;;;;;;;185.45;113.57;;;7.20;99.90;;;;;;5050184;28;20067;-78
2022/12/27 02:24:46;;;;;;;198.93;115.45;;;7.20;99.90;;;;;;5070886;28;20072;-76
2022/12/27 02:27:32;;;;;;;190.02;116.15;;;7.20;99.90;;;;;;5051892;28;20081;-78
2022/12/27 02:30:04;;;;;;;192.32;116.88;;;7.20;99.90;;;;;;5060328;28;20075;-77
2022/12/27 02:32:37;;;;;;;175.23;104.10;;;7.30;99.90;;;;;;5049742;28;20044;-78
2022/12/27 02:35:12;;;;;;;158.50;96.07;;;7.20;99.90;;;;;;5050638;28;20044;-78
2022/12/27 02:37:44;;;;;;;164.05;98.85;;;7.20;99.90;;;;;;5049364;28;20656;-78
2022/12/27 02:54:41;;;;;;;188.02;112.57;;;7.00;99.90;;;;;;5049773;28;20037;-78
2022/12/27 02:57:19;;;;;;;183.02;110.47;;;6.90;99.90;;;;;;5049214;28;20044;-79
2022/12/27 03:03:22;;;;;;;187.85;114.07;;;6.80;99.90;;;;;;5048645;28;20037;-79
2022/12/27 03:09:02;;;;;;;185.07;114.55;;;6.60;99.90;;;;;;5064812;28;20396;-78
2022/12/27 03:17:26;;;;;;;173.45;107.05;;;6.50;99.90;;;;;;4977480;28;20129;-78
2022/12/27 03:25:37;;;;;;;169.75;103.57;;;6.60;99.90;;;;;;4978614;28;20063;-77
2022/12/27 03:33:44;;;;;;;212.25;127.50;;;6.90;99.90;;;;;;5086103;28;20363;-77
2022/12/27 03:39:09;;;;;;;192.95;114.15;;;6.80;99.90;;;;;;5076667;28;20136;-77
2022/12/27 03:44:28;;;;;;;171.85;105.35;;;6.70;99.90;;;;;;5060387;28;20048;-76
2022/12/27 03:46:56;;;;;;;172.88;105.63;;;6.80;99.90;;;;;;5072084;28;20059;-77
2022/12/27 03:49:30;;;;;;;178.18;112.28;;;6.80;99.90;;;;;;5063549;28;20053;-78
2022/12/27 03:52:06;;;;;;;190.63;116.53;;;6.70;99.90;;;;;;5053654;28;20091;-78
2022/12/27 03:54:36;;;;;;;187.77;112.47;;;6.70;99.90;;;;;;5053198;28;20048;-75
2022/12/27 03:57:06;;;;;;;151.57;94.50;;;6.60;99.90;;;;;;5054313;28;20052;-75
2022/12/27 03:59:34;;;;;;;156.38;96.57;;;6.60;99.90;;;;;;5059900;28;20121;-76
2022/12/27 04:02:03;;;;;;;174.60;111.75;;;6.60;99.90;;;;;;5067313;28;20059;-77
2022/12/27 04:04:30;;;;;;;186.57;115.60;;;6.60;99.90;;;;;;5076210;28;20057;-77
2022/12/27 04:07:02;;;;;;;190.27;116.57;;;6.60;99.90;;;;;;5070442;28;20049;-75
2022/12/27 04:37:02;;;;;;;160.82;98.60;;;6.90;99.90;;;;;;5051196;28;20083;-77
2022/12/27 04:39:31;;;;;;;142.60;89.50;;;6.90;99.90;;;;;;5051430;28;20049;-77
2022/12/27 04:55:57;;;;;;;132.38;82.15;;;7.00;99.90;;;;;;5051487;28;20041;-77
2022/12/27 04:58:24;;;;;;;135.35;83.70;;;7.10;99.90;;;;;;5051041;28;20045;-77
2022/12/27 05:03:38;;;;;;;83.15;54.67;;;7.10;99.90;;;;;;5050338;28;20049;-77
2022/12/27 05:06:09;;;;;;;94.35;57.88;;;7.20;99.90;;;;;;5050658;28;20051;-77
2022/12/27 05:14:10;;;;;;;132.57;83.18;;;7.30;99.90;;;;;;5051044;28;20045;-77
2022/12/27 05:16:40;;;;;;;138.43;83.40;;;7.30;99.90;;;;;;5050128;28;20124;-76
2022/12/27 05:19:09;;;;;;;139.18;82.10;;;7.40;99.90;;;;;;5050838;28;20045;-77
2022/12/27 05:21:37;;;;;;;139.93;78.63;;;7.40;99.90;;;;;;5051376;28;20040;-78
2022/12/27 05:26:51;;;;;;;128.25;77.35;;;7.50;99.90;;;;;;5050418;28;20120;-77
2022/12/27 05:29:18;;;;;;;147.45;86.18;;;7.40;99.90;;;;;;5049795;28;20060;-77
2022/12/27 05:31:46;;;;;;;132.13;82.30;;;7.40;99.90;;;;;;5051007;28;20090;-79
2022/12/27 05:34:13;;;;;;;125.13;81.70;;;7.50;99.90;;;;;;5050699;28;20040;-77
2022/12/27 05:36:41;;;;;;;117.68;73.57;;;7.50;99.90;;;;;;5049964;28;20041;-76
2022/12/27 05:39:08;;;;;;;126.00;80.78;;;7.50;99.90;;;;;;5051491;28;20045;-75
2022/12/27 05:41:35;;;;;;;121.68;77.18;;;7.40;99.90;;;;;;5062604;28;20041;-76
2022/12/27 05:44:04;;;;;;;115.07;76.30;;;7.40;99.90;;;;;;5066092;28;20052;-76
2022/12/27 05:46:32;;;;;;;108.90;68.75;;;7.30;99.90;;;;;;5062852;28;20060;-77
2022/12/27 05:48:59;;;;;;;124.20;80.30;;;7.30;99.90;;;;;;5051384;28;20044;-76
2022/12/27 05:51:26;;;;;;;143.65;89.72;;;7.30;99.90;;;;;;5061718;28;20056;-76
2022/12/27 05:53:54;;;;;;;165.63;99.47;;;7.30;99.90;;;;;;5055687;28;20264;-77
2022/12/27 05:56:22;;;;;;;146.25;90.70;;;7.30;99.90;;;;;;5051054;28;20049;-79
2022/12/27 05:58:53;;;;;;;140.93;82.10;;;7.30;99.90;;;;;;5051820;28;20029;-76
2022/12/27 06:01:22;;;;;;;212.38;113.10;;;7.30;99.90;;;;;;5050039;28;20485;-77
2022/12/27 06:03:50;;;;;;;272.25;155.35;;;7.50;99.90;;;;;;5054754;28;20041;-76
2022/12/27 06:06:17;;;;;;;164.93;93.78;;;7.50;99.90;;;;;;5049736;28;20485;-76
2022/12/27 06:08:45;;;;;;;121.97;71.45;;;7.50;99.90;;;;;;5050060;28;20041;-77
2022/12/27 06:11:14;;;;;;;124.60;79.93;;;7.60;99.90;;;;;;5049105;28;20123;-76
2022/12/27 06:13:43;;;;;;;130.75;82.38;;;7.60;99.90;;;;;;5046740;28;20082;-78
2022/12/27 06:16:12;;;;;;;128.25;80.68;;;7.60;99.90;;;;;;5048475;28;20044;-77
2022/12/27 06:18:42;;;;;;;146.43;91.20;;;7.60;99.90;;;;;;5049217;28;20042;-77
2022/12/27 06:21:11;;;;;;;133.02;82.53;;;7.60;99.90;;;;;;5053075;28;20072;-75
2022/12/27 06:23:40;;;;;;;128.07;80.85;;;7.60;99.90;;;;;;5051916;28;20061;-75
2022/12/27 06:26:11;;;;;;;110.63;72.60;;;7.60;99.90;;;;;;5048966;28;20488;-77
2022/12/27 06:28:38;;;;;;;126.10;78.80;;;7.60;99.90;;;;;;5049406;28;20057;-77
2022/12/27 06:31:08;;;;;;;114.32;77.85;;;7.60;99.90;;;;;;5049981;28;20043;-78
2022/12/27 06:33:36;;;;;;;129.27;80.55;;;7.60;99.90;;;;;;5048016;28;20107;-76
2022/12/27 06:36:08;;;;;;;130.75;82.80;;;7.70;99.90;;;;;;5055118;28;20052;-74
2022/12/27 06:38:37;;;;;;;153.07;93.07;;;7.80;99.90;;;;;;5063901;28;20045;-73
2022/12/27 06:41:06;;;;;;;154.60;96.35;;;7.90;99.90;;;;;;5052058;28;20048;-76
2022/12/27 06:43:34;;;;;;;167.75;100.82;;;7.90;99.90;;;;;;5049622;28;20481;-76
2022/12/27 06:46:02;;;;;;;178.20;107.68;;;7.90;99.90;;;;;;5049477;28;20041;-76
2022/12/27 06:48:31;;;;;;;216.23;127.78;;;8.00;99.90;;;;;;5049665;28;20530;-76
2022/12/27 06:50:58;;;;;;;190.05;114.03;;;8.10;99.90;;;;;;5049379;28;20045;-77
2022/12/27 06:53:27;;;;;;;178.20;106.43;;;8.00;99.90;;;;;;5049704;28;20071;-78
2022/12/27 06:55:54;;;;;;;177.57;113.40;;;8.10;99.90;;;;;;5049317;28;20051;-76
2022/12/27 06:58:22;;;;;;;146.70;97.22;;;8.20;99.90;;;;;;5047272;28;20102;-76
2022/12/27 07:00:50;;;;;;;127.20;84.35;;;8.20;99.90;;;;;;5049463;28;20060;-75
2022/12/27 07:03:17;;;;;;;128.98;83.78;;;8.20;99.90;;;;;;5049762;28;20072;-77
2022/12/27 07:05:44;;;;;;;234.80;137.90;;;8.30;99.90;;;;;;5047535;28;20087;-77
2022/12/27 07:08:12;;;;;;;245.75;144.82;;;8.30;99.90;;;;;;5057061;28;20041;-77
2022/12/27 07:10:41;;;;;;;227.73;135.40;;;8.30;99.90;;;;;;5065548;28;20045;-79
2022/12/27 07:13:08;;;;;;;235.90;139.80;;;8.30;99.90;;;;;;5057409;28;21076;-78
2022/12/27 07:15:38;;;;;;;220.73;131.55;;;8.40;99.90;;;;;;5053927;28;20029;-78
2022/12/27 07:18:05;;;;;;;239.18;142.48;;;8.40;99.90;;;;;;5052965;28;20041;-79
2022/12/27 07:20:33;;;;;;;245.82;150.15;;;8.50;99.90;;;;;;5069793;28;20382;-76
2022/12/27 07:23:00;;;;;;;237.25;144.35;;;8.50;99.90;;;;;;5053818;28;20127;-77
2022/12/27 07:25:28;;;;;;;226.48;140.68;;;8.60;99.90;;;;;;5053598;28;20063;-77
2022/12/27 07:27:56;;;;;;;245.60;149.85;;;8.60;99.90;;;;;;5052758;28;20039;-78
2022/12/27 07:30:24;;;;;;;226.13;133.68;;;8.70;99.90;;;;;;5053145;28;20481;-79
2022/12/27 07:32:51;;;;;;;203.93;117.53;;;8.70;99.90;;;;;;5051581;28;20048;-78
2022/12/27 07:35:19;;;;;;;356.88;188.40;;;8.80;99.90;;;;;;5054824;28;20037;-75
2022/12/27 07:37:47;;;;;;;448.88;232.23;;;8.80;99.90;;;;;;5063337;28;20102;-75
2022/12/27 07:40:14;;;;;;;394.02;214.40;;;8.90;99.90;;;;;;5053224;28;20721;-78
2022/12/27 07:42:41;;;;;;;330.08;183.40;;;9.00;99.90;;;;;;5053499;28;20041;-77
2022/12/27 07:45:11;;;;;;;269.75;160.55;;;9.00;99.90;;;;;;5056234;28;20051;-73
2022/12/27 07:47:38;;;;;;;245.02;148.20;;;9.10;99.90;;;;;;5059151;28;20056;-73
2022/12/27 07:50:06;;;;;;;270.63;163.85;;;9.10;99.90;;;;;;5073188;28;20075;-75
2022/12/27 07:52:34;;;;;;;295.17;191.00;;;9.10;99.90;;;;;;5075785;28;20051;-72
2022/12/27 07:55:01;;;;;;;260.80;160.35;;;9.10;99.90;;;;;;5075139;28;20033;-74
2022/12/27 07:57:29;;;;;;;259.45;165.80;;;9.10;99.90;;;;;;5059096;28;20403;-76
2022/12/27 07:59:56;;;;;;;273.00;171.63;;;9.10;99.90;;;;;;5053249;28;20041;-76
2022/12/27 08:02:25;;;;;;;247.95;148.43;;;9.00;99.90;;;;;;5053338;28;20516;-77
2022/12/27 08:04:53;;;;;;;245.35;145.93;;;9.00;99.90;;;;;;5051520;28;20053;-77
2022/12/27 08:07:21;;;;;;;255.85;151.38;;;9.00;99.90;;;;;;5053660;28;20040;-77
2022/12/27 08:09:48;;;;;;;286.45;179.98;;;9.10;99.90;;;;;;5054050;28;20047;-78
2022/12/27 08:12:16;;;;;;;307.55;190.85;;;9.20;99.90;;;;;;5053775;28;20037;-78
2022/12/27 08:14:44;;;;;;;255.10;149.02;;;9.20;99.90;;;;;;5053169;28;20053;-78
2022/12/27 08:17:17;;;;;;;200.82;120.00;;;9.40;99.90;;;;;;5057005;28;20048;-75
2022/12/27 08:19:45;;;;;;;182.73;110.45;;;9.50;99.90;;;;;;5063957;28;20045;-75
2022/12/27 08:22:14;;;;;;;173.77;107.80;;;9.80;99.90;;;;;;5058864;28;20408;-76
2022/12/27 08:24:41;;;;;;;252.48;149.82;;;9.90;99.90;;;;;;5062354;28;20135;-75
2022/12/27 08:27:09;;;;;;;175.35;106.55;;;10.00;99.90;;;;;;5062438;28;20049;-77
2022/12/27 08:29:36;;;;;;;152.18;90.57;;;10.00;99.90;;;;;;5075254;28;20041;-76
2022/12/27 08:32:05;;;;;;;175.93;107.07;;;10.00;99.90;;;;;;5063495;28;20133;-77
2022/12/27 08:34:33;;;;;;;188.75;116.63;;;10.00;99.90;;;;;;5055137;28;20052;-74
2022/12/27 08:37:02;;;;;;;180.63;114.40;;;10.00;99.90;;;;;;5065460;28;20049;-75
2022/12/27 08:39:30;;;;;;;275.83;181.07;;;9.90;99.90;;;;;;5067123;28;20097;-76
2022/12/27 08:41:57;;;;;;;280.17;181.25;;;9.90;99.90;;;;;;5065649;28;20396;-78
2022/12/27 08:44:26;;;;;;;281.13;185.52;;;9.90;99.90;;;;;;5065057;28;20093;-78
2022/12/27 08:46:53;;;;;;;273.70;178.88;;;9.90;99.90;;;;;;5064576;28;20035;-78
2022/12/27 08:49:21;;;;;;;230.98;147.20;;;9.90;99.90;;;;;;5063109;28;20052;-77
2022/12/27 08:51:48;;;;;;;242.40;159.07;;;10.00;99.90;;;;;;5066603;28;20064;-74
2022/12/27 08:54:17;;;;;;;215.10;137.02;;;10.10;99.90;;;;;;5063554;28;20538;-78
2022/12/27 08:59:36;;;;;;;228.70;148.43;;;10.20;99.90;;;;;;5058113;23;20507;-76
2022/12/27 09:02:04;;;;;;;211.27;144.93;;;10.20;99.90;;;;;;4945200;29;20044;-79
2022/12/27 09:04:32;;;;;;;175.52;121.85;;;10.30;99.90;;;;;;4930492;29;20055;-77
2022/12/27 09:07:03;;;;;;;163.35;113.15;;;10.40;99.90;;;;;;4931454;29;20076;-80
2022/12/27 09:09:32;;;;;;;180.43;125.28;;;10.60;99.90;;;;;;4945586;28;20043;-74
2022/12/27 09:12:00;;;;;;;185.88;127.78;;;10.70;99.90;;;;;;4952246;29;20058;-76
2022/12/27 09:14:27;;;;;;;170.32;116.53;;;10.80;99.90;;;;;;4965407;29;20058;-75
2022/12/27 09:16:54;;;;;;;151.43;99.50;;;10.90;99.90;;;;;;4964014;29;20038;-76
2022/12/27 09:19:22;;;;;;;153.43;105.13;;;11.00;99.90;;;;;;4963702;28;20051;-74
2022/12/27 09:21:49;;;;;;;168.13;107.47;;;11.00;99.90;;;;;;4953827;29;20047;-75
2022/12/27 09:24:17;;;;;;;160.95;107.90;;;11.00;99.90;;;;;;4943062;29;20059;-75
2022/12/27 09:26:45;;;;;;;165.32;109.95;;;11.10;99.90;;;;;;4943945;29;20051;-74
2022/12/27 09:29:13;;;;;;;166.30;111.88;;;11.10;99.90;;;;;;4942734;28;20043;-75
2022/12/27 09:31:40;;;;;;;211.32;145.35;;;11.20;99.90;;;;;;4926899;29;20594;-77
2022/12/27 09:34:09;;;;;;;198.00;137.35;;;11.20;99.90;;;;;;4954361;29;20044;-76
2022/12/27 09:36:38;;;;;;;208.85;142.82;;;11.30;99.90;;;;;;4957112;29;20044;-77
2022/12/27 09:39:06;;;;;;;201.30;140.82;;;11.20;99.90;;;;;;4945952;29;20039;-77
2022/12/27 09:41:50;;;;;;;233.68;163.13;;;11.30;99.90;;;;;;4943115;29;20392;-77
2022/12/27 09:44:24;;;;;;;279.88;205.75;;;11.30;99.90;;;;;;4943667;29;20047;-76
2022/12/27 09:46:54;;;;;;;239.25;179.88;;;11.30;99.90;;;;;;4944464;29;20163;-76
2022/12/27 09:49:29;;;;;;;236.07;175.90;;;11.30;99.90;;;;;;4926258;29;20472;-76
2022/12/27 09:52:00;;;;;;;218.00;158.05;;;11.40;99.90;;;;;;4944433;29;20036;-78
2022/12/27 09:54:34;;;;;;;199.60;144.82;;;11.50;99.90;;;;;;4925863;29;20073;-78
2022/12/27 09:57:05;;;;;;;192.18;140.35;;;11.50;99.90;;;;;;4949876;29;20051;-76
2022/12/27 09:59:36;;;;;;;194.75;142.38;;;11.60;99.90;;;;;;4943051;29;20416;-76
2022/12/27 10:02:18;;;;;;;180.98;129.93;;;11.60;99.90;;;;;;4942927;29;20044;-78
2022/12/27 10:04:46;;;;;;;178.48;131.10;;;11.70;99.90;;;;;;4942779;29;20134;-78
2022/12/27 10:07:20;;;;;;;248.95;170.40;;;11.70;99.90;;;;;;4942452;28;20046;-78
2022/12/27 10:09:57;;;;;;;308.55;203.98;;;11.80;99.90;;;;;;4923981;29;20048;-77
2022/12/27 10:12:46;;;;;;;235.82;155.02;;;11.70;99.90;;;;;;4943297;29;20074;-75
2022/12/27 10:15:23;;;;;;;270.77;179.02;;;11.60;99.90;;;;;;4943386;29;20067;-77
2022/12/27 10:18:02;;;;;;;293.08;201.13;;;11.50;99.90;;;;;;4941662;29;20040;-78
2022/12/27 10:20:46;;;;;;;215.43;148.13;;;11.50;99.90;;;;;;4944212;29;20388;-77
2022/12/27 10:23:18;;;;;;;173.77;123.50;;;11.50;99.90;;;;;;4941637;29;20048;-77
2022/12/27 10:25:47;;;;;;;140.77;100.90;;;11.60;99.90;;;;;;4941923;29;20046;-78
2022/12/27 10:28:21;;;;;;;153.93;112.53;;;11.70;99.90;;;;;;4942250;28;20047;-76
2022/12/27 10:30:49;;;;;;;148.93;108.45;;;11.80;99.90;;;;;;4942969;29;20044;-77
2022/12/27 10:33:21;;;;;;;149.77;110.00;;;12.00;99.90;;;;;;4929152;29;20048;-74
2022/12/27 10:35:48;;;;;;;174.10;125.90;;;12.10;99.90;;;;;;4946362;29;20051;-76
2022/12/27 10:38:16;;;;;;;156.32;117.13;;;12.10;99.90;;;;;;4941322;29;20046;-74
2022/12/27 10:40:52;;;;;;;164.48;118.47;;;12.10;99.90;;;;;;4943303;29;20039;-76
2022/12/27 10:43:26;;;;;;;147.35;107.03;;;12.10;99.90;;;;;;4943789;29;20055;-74
2022/12/27 10:45:54;;;;;;;172.70;127.03;;;12.20;99.90;;;;;;4944196;29;20043;-75
2022/12/27 10:48:24;;;;;;;174.55;129.75;;;12.20;99.90;;;;;;4926135;29;20044;-76
2022/12/27 10:50:55;;;;;;;121.95;85.90;;;12.20;99.90;;;;;;4942835;29;20042;-76
2022/12/27 10:53:37;;;;;;;122.57;85.65;;;12.20;99.90;;;;;;4947185;29;20047;-74
2022/12/27 10:56:14;;;;;;;104.88;74.57;;;12.10;99.90;;;;;;4945275;29;20051;-77
2022/12/27 10:58:45;;;;;;;106.35;73.30;;;12.00;99.90;;;;;;4943081;29;20052;-75
2022/12/27 11:01:23;;;;;;;95.90;64.72;;;11.90;99.90;;;;;;4956127;29;20069;-77
2022/12/27 11:03:51;;;;;;;106.15;72.68;;;12.00;99.90;;;;;;4929077;29;20055;-76
2022/12/27 11:06:22;;;;;;;116.95;84.60;;;12.00;99.90;;;;;;4953243;29;20663;-75
2022/12/27 11:08:50;;;;;;;104.20;74.47;;;12.00;99.90;;;;;;4959737;28;20048;-75
2022/12/27 11:11:21;;;;;;;119.68;89.03;;;12.10;99.90;;;;;;4945039;29;20052;-75
2022/12/27 11:13:51;;;;;;;110.57;80.43;;;12.10;99.90;;;;;;4944808;29;20558;-75
2022/12/27 11:16:28;;;;;;;71.95;53.85;;;12.20;99.90;;;;;;4945141;29;20040;-76
2022/12/27 11:18:58;;;;;;;72.65;52.67;;;12.10;99.90;;;;;;4941760;29;20043;-75
2022/12/27 11:21:29;;;;;;;61.53;46.17;;;12.10;99.90;;;;;;4942083;29;20048;-74
2022/12/27 11:23:59;;;;;;;73.93;54.63;;;12.00;99.90;;;;;;4942026;29;20040;-75
2022/12/27 11:26:29;;;;;;;72.57;53.22;;;11.90;99.90;;;;;;4944635;29;20044;-76
2022/12/27 11:29:00;;;;;;;40.50;31.25;;;11.90;99.90;;;;;;4949468;29;20046;-76
2022/12/27 11:31:38;;;;;;;39.67;29.20;;;11.90;99.90;;;;;;4943492;29;20130;-76
2022/12/27 11:34:14;;;;;;;54.97;37.83;;;11.80;99.90;;;;;;4941824;29;20122;-76
2022/12/27 11:36:44;;;;;;;56.13;38.83;;;11.80;99.90;;;;;;4943376;28;20074;-74
2022/12/27 11:39:38;;;;;;;56.85;41.10;;;11.80;99.90;;;;;;4950126;29;20092;-76
2022/12/27 11:42:10;;;;;;;56.78;39.33;;;11.70;99.90;;;;;;4944868;29;20123;-74
2022/12/27 11:44:43;;;;;;;50.42;36.35;;;11.70;99.90;;;;;;4949681;29;20055;-78
2022/12/27 11:47:16;;;;;;;45.10;33.38;;;11.70;99.90;;;;;;4963672;29;20066;-73
2022/12/27 11:49:51;;;;;;;52.70;40.03;;;11.60;99.90;;;;;;4962971;29;20062;-75
2022/12/27 11:52:39;;;;;;;53.38;39.03;;;11.60;99.90;;;;;;4951106;29;20070;-77
2022/12/27 11:55:33;;;;;;;48.60;33.75;;;11.60;99.90;;;;;;4943309;29;20051;-76
2022/12/27 11:58:26;;;;;;;51.60;36.05;;;11.60;99.90;;;;;;4945184;28;20051;-74
2022/12/27 12:01:01;;;;;;;31.45;20.45;;;11.60;99.90;;;;;;4956436;29;20051;-76
2022/12/27 12:03:57;;;;;;;19.93;12.50;;;11.40;99.90;;;;;;4947273;29;20044;-76
2022/12/27 12:06:35;;;;;;;15.18;9.75;;;11.30;99.90;;;;;;4927049;28;20336;-75
2022/12/27 12:09:21;;;;;;;11.30;8.30;;;11.10;99.90;;;;;;4946332;29;20134;-75
2022/12/27 12:12:18;;;;;;;11.48;8.13;;;11.10;99.90;;;;;;4947255;29;20494;-76
2022/12/27 12:15:13;;;;;;;13.98;8.30;;;11.00;99.90;;;;;;4947118;29;20039;-75
2022/12/27 12:17:59;;;;;;;26.83;18.23;;;10.90;99.90;;;;;;4942199;28;20043;-76
2022/12/27 12:20:54;;;;;;;33.00;21.67;;;10.90;99.90;;;;;;4927667;29;20055;-76
2022/12/27 12:23:37;;;;;;;35.67;24.25;;;10.80;99.90;;;;;;4942334;29;20066;-73
2022/12/27 12:26:13;;;;;;;34.42;20.58;;;10.70;99.90;;;;;;4926695;29;20059;-75
2022/12/27 12:29:10;;;;;;;28.58;19.25;;;10.60;99.90;;;;;;4926312;29;20511;-76
2022/12/27 12:32:16;;;;;;;29.15;20.70;;;10.60;99.90;;;;;;4944185;29;20044;-76
2022/12/27 12:35:01;;;;;;;20.10;13.67;;;10.70;99.90;;;;;;4919329;29;20058;-76
2022/12/27 12:37:48;;;;;;;23.13;14.48;;;10.70;99.90;;;;;;4943082;29;20324;-76
2022/12/27 12:40:37;;;;;;;33.20;22.05;;;10.70;99.90;;;;;;4945164;29;20930;-75
2022/12/27 12:43:23;;;;;;;24.33;17.02;;;10.70;99.90;;;;;;4943383;29;20106;-74
2022/12/27 12:46:02;;;;;;;23.27;16.40;;;10.70;99.90;;;;;;4924823;29;20052;-74
2022/12/27 12:49:10;;;;;;;24.55;17.52;;;10.70;99.90;;;;;;4943123;29;20518;-74
2022/12/27 12:52:10;;;;;;;17.85;12.93;;;10.80;99.90;;;;;;4941219;29;20039;-75
2022/12/27 12:55:01;;;;;;;18.10;12.43;;;10.60;99.90;;;;;;4957078;29;20111;-78
2022/12/27 12:57:39;;;;;;;22.70;15.93;;;10.60;99.90;;;;;;4957089;28;20043;-77
2022/12/27 13:00:35;;;;;;;37.38;23.60;;;10.70;99.90;;;;;;4927950;29;20047;-76
2022/12/27 13:03:35;;;;;;;33.08;23.27;;;10.70;99.90;;;;;;4926087;29;20384;-75
2022/12/27 13:06:18;;;;;;;115.32;78.30;;;10.60;99.90;;;;;;4943885;28;20048;-76
2022/12/27 13:08:56;;;;;;;45.45;28.60;;;10.70;99.90;;;;;;4941344;29;20043;-75
2022/12/27 13:11:39;;;;;;;9.88;6.40;;;10.70;99.90;;;;;;4924885;29;20071;-74
2022/12/27 13:14:22;;;;;;;28.58;20.40;;;10.70;99.90;;;;;;4927833;29;20066;-73
2022/12/27 13:16:55;;;;;;;21.88;15.75;;;10.80;99.90;;;;;;4944709;28;20062;-75
2022/12/27 13:19:59;;;;;;;31.38;22.95;;;11.00;99.90;;;;;;4925341;29;20039;-78
2022/12/27 13:22:40;;;;;;;31.55;21.85;;;11.10;99.90;;;;;;4939762;29;20541;-75
2022/12/27 13:25:21;;;;;;;38.80;25.27;;;11.20;99.90;;;;;;4943051;29;20102;-75
2022/12/27 13:27:56;;;;;;;42.90;29.13;;;11.20;99.90;;;;;;4943258;28;20054;-75
2022/12/27 13:30:27;;;;;;;35.75;25.40;;;11.20;99.90;;;;;;4942676;29;20073;-75
2022/12/27 13:33:15;;;;;;;32.97;22.67;;;11.10;99.90;;;;;;4942034;29;20581;-75
2022/12/27 13:35:58;;;;;;;32.30;23.77;;;11.10;99.90;;;;;;4945552;29;20043;-75
2022/12/27 13:38:38;;;;;;;32.95;23.98;;;11.10;99.90;;;;;;4943399;29;20079;-75
2022/12/27 13:41:26;;;;;;;38.15;28.77;;;11.00;99.90;;;;;;4944101;29;20492;-80
2022/12/27 13:44:11;;;;;;;27.77;21.70;;;11.00;99.90;;;;;;4927181;29;20043;-77
2022/12/27 13:46:53;;;;;;;26.60;20.77;;;10.90;99.90;;;;;;4941805;29;20056;-77
2022/12/27 13:50:03;;;;;;;27.90;20.75;;;10.80;99.90;;;;;;4942525;29;20050;-77
2022/12/27 13:52:51;;;;;;;25.17;20.25;;;10.80;99.90;;;;;;4942151;29;20050;-76
2022/12/27 13:55:37;;;;;;;45.97;33.67;;;10.80;99.90;;;;;;4943937;29;20061;-77
2022/12/27 13:58:38;;;;;;;48.20;31.83;;;10.80;99.90;;;;;;4940740;28;20059;-77
2022/12/27 14:01:28;;;;;;;51.50;34.75;;;10.80;99.90;;;;;;4929959;29;20048;-76
2022/12/27 14:04:15;;;;;;;55.72;37.38;;;10.80;99.90;;;;;;4942142;29;20122;-77
2022/12/27 14:07:03;;;;;;;76.22;53.67;;;10.80;99.90;;;;;;4922752;29;20043;-76
2022/12/27 14:09:55;;;;;;;73.45;52.00;;;10.80;99.90;;;;;;4940012;29;20050;-78
2022/12/27 14:12:57;;;;;;;55.78;40.00;;;10.80;99.90;;;;;;4942303;29;20054;-78
2022/12/27 14:15:39;;;;;;;50.17;37.88;;;10.80;99.90;;;;;;4931240;29;20059;-78
2022/12/27 14:18:34;;;;;;;36.05;25.27;;;10.60;99.90;;;;;;4943875;29;20097;-77
2022/12/27 14:21:14;;;;;;;30.55;21.73;;;10.50;99.90;;;;;;4939869;29;20526;-76
2022/12/27 14:24:03;;;;;;;36.78;23.88;;;10.50;99.90;;;;;;4942567;29;20155;-77
2022/12/27 14:27:26;;;;;;;33.33;23.42;;;10.40;99.90;;;;;;4940464;29;20089;-78
2022/12/27 14:30:26;;;;;;;19.23;11.40;;;10.30;99.90;;;;;;4942894;29;20503;-76
2022/12/27 14:33:39;;;;;;;23.10;15.20;;;10.00;99.90;;;;;;4947641;29;20939;-76